createdAt,value
2019-03-24T00:00:02.321Z,54.07
2019-03-24T00:04:12.560Z,55.11
2019-03-24T00:08:20.795Z,56.04
2019-03-24T00:12:29.326Z,54.75
2019-03-24T00:16:37.663Z,54.40
2019-03-24T00:20:45.976Z,56.54
2019-03-24T00:24:54.423Z,57.27
2019-03-24T00:29:02.611Z,55.98
2019-03-24T00:33:11.349Z,54.80
2019-03-24T00:37:20.179Z,54.91
2019-03-24T00:41:28.425Z,53.62
2019-03-24T00:45:37.332Z,53.33
2019-03-24T00:49:45.763Z,53.92
2019-03-24T00:53:53.979Z,53.56
2019-03-24T00:58:02.316Z,53.40
2019-03-24T01:02:10.934Z,53.01
2019-03-24T01:06:19.269Z,52.21
2019-03-24T01:10:28.207Z,52.67
2019-03-24T01:14:36.519Z,53.33
2019-03-24T01:18:44.965Z,52.40
2019-03-24T01:22:53.574Z,51.79
2019-03-24T01:27:02.432Z,51.52
2019-03-24T01:31:10.637Z,51.74
2019-03-24T01:35:19.239Z,52.78
2019-03-24T01:39:27.685Z,53.29
2019-03-24T01:43:36.203Z,52.88
2019-03-24T01:47:44.537Z,51.64
2019-03-24T01:51:52.955Z,50.91
2019-03-24T01:56:01.890Z,50.28
2019-03-24T02:00:10.530Z,51.03
2019-03-24T02:04:18.836Z,51.33
2019-03-24T02:08:27.674Z,52.89
2019-03-24T02:12:36.382Z,52.81
2019-03-24T02:16:44.631Z,52.66
2019-03-24T02:20:53.242Z,52.41
2019-03-24T02:25:01.492Z,52.69
2019-03-24T02:29:09.809Z,52.09
2019-03-24T02:33:18.325Z,52.10
2019-03-24T02:37:26.544Z,52.21
2019-03-24T02:41:35.382Z,51.80
2019-03-24T02:45:43.789Z,51.68
2019-03-24T02:49:52.731Z,52.05
2019-03-24T02:54:01.375Z,51.08
2019-03-24T02:58:10.329Z,50.87
2019-03-24T03:02:18.543Z,51.21
2019-03-24T03:06:27.348Z,50.60
2019-03-24T03:10:36.180Z,49.74
2019-03-24T03:14:44.387Z,48.67
2019-03-24T03:18:52.842Z,49.04
2019-03-24T03:23:01.075Z,49.28
2019-03-24T03:27:09.368Z,49.85
2019-03-24T03:31:17.895Z,47.61
2019-03-24T03:35:26.138Z,47.91
2019-03-24T03:39:34.770Z,47.16
2019-03-24T03:43:43.291Z,47.49
2019-03-24T03:47:51.613Z,46.74
2019-03-24T03:52:00.124Z,45.18
2019-03-24T03:56:08.867Z,45.19
2019-03-24T04:00:18.813Z,46.28
2019-03-24T04:04:27.137Z,44.82
2019-03-24T04:08:36.155Z,45.32
2019-03-24T04:12:44.710Z,44.34
2019-03-24T04:17:06.181Z,44.56
2019-03-24T04:21:03.292Z,44.81
2019-03-24T04:25:11.729Z,44.37
2019-03-24T04:29:20.868Z,44.12
2019-03-24T04:33:29.285Z,44.33
2019-03-24T04:37:39.067Z,44.28
2019-03-24T04:41:47.471Z,44.50
2019-03-24T04:45:56.099Z,44.10
2019-03-24T04:50:04.826Z,43.21
2019-03-24T04:54:13.432Z,43.04
2019-03-24T04:58:21.784Z,42.52
2019-03-24T05:02:30.726Z,41.40
2019-03-24T05:06:40.173Z,41.52
2019-03-24T05:10:48.407Z,41.35
2019-03-24T05:14:57.001Z,40.64
2019-03-24T05:19:05.329Z,41.83
2019-03-24T05:23:13.787Z,39.35
2019-03-24T05:27:22.498Z,39.09
2019-03-24T05:31:31.008Z,39.11
2019-03-24T05:35:39.671Z,38.16
2019-03-24T05:39:48.059Z,38.16
2019-03-24T05:43:56.292Z,37.71
2019-03-24T05:48:05.024Z,37.24
2019-03-24T05:52:13.248Z,34.73
2019-03-24T05:56:22.107Z,37.41
2019-03-24T06:00:30.932Z,35.19
2019-03-24T06:04:39.147Z,33.31
2019-03-24T06:08:47.769Z,33.62
2019-03-24T06:12:56.793Z,34.18
2019-03-24T06:17:05.030Z,34.76
2019-03-24T06:21:13.869Z,34.49
2019-03-24T06:25:22.799Z,33.25
2019-03-24T06:29:31.141Z,31.80
2019-03-24T06:33:39.758Z,32.98
2019-03-24T06:37:47.973Z,32.86
2019-03-24T06:41:56.846Z,31.52
2019-03-24T06:46:05.628Z,30.74
2019-03-24T06:50:14.109Z,30.42
2019-03-24T06:54:22.782Z,30.46
2019-03-24T06:58:31.722Z,30.82
2019-03-24T07:02:40.078Z,31.06
2019-03-24T07:06:48.868Z,29.67
2019-03-24T07:10:57.721Z,30.27
2019-03-24T07:15:06.181Z,29.29
2019-03-24T07:19:14.562Z,30.10
2019-03-24T07:23:22.801Z,29.40
2019-03-24T07:27:31.302Z,29.85
2019-03-24T07:31:40.069Z,29.61
2019-03-24T07:35:48.355Z,28.39
2019-03-24T07:39:56.778Z,29.56
2019-03-24T07:44:05.081Z,26.80
2019-03-24T07:48:19.027Z,27.50
2019-03-24T07:52:23.596Z,26.40
2019-03-24T07:56:32.546Z,26.21
2019-03-24T08:00:41.141Z,27.97
2019-03-24T08:04:49.389Z,27.75
2019-03-24T08:08:57.610Z,27.59
2019-03-24T08:13:06.945Z,26.06
2019-03-24T08:17:15.778Z,26.64
2019-03-24T08:21:24.100Z,26.95
2019-03-24T08:25:32.950Z,25.66
2019-03-24T08:29:41.254Z,28.44
2019-03-24T08:33:49.488Z,26.56
2019-03-24T08:37:57.797Z,26.56
2019-03-24T08:42:06.224Z,25.82
2019-03-24T08:46:14.957Z,26.13
2019-03-24T08:50:23.173Z,23.93
2019-03-24T08:54:31.399Z,25.63
2019-03-24T08:58:41.230Z,25.09
2019-03-24T09:02:49.499Z,25.16
2019-03-24T09:06:58.114Z,25.02
2019-03-24T09:11:06.745Z,25.92
2019-03-24T09:15:15.159Z,25.80
2019-03-24T09:19:23.777Z,24.61
2019-03-24T09:23:33.014Z,24.40
2019-03-24T09:27:41.671Z,26.69
2019-03-24T09:31:50.000Z,27.18
2019-03-24T09:35:58.507Z,27.18
2019-03-24T09:40:11.370Z,28.36
2019-03-24T09:44:20.188Z,27.46
2019-03-24T09:48:28.697Z,28.82
2019-03-24T09:52:37.134Z,28.69
2019-03-24T09:56:45.454Z,28.23
2019-03-24T10:00:53.771Z,27.68
2019-03-24T10:05:02.162Z,27.79
2019-03-24T10:09:11.836Z,28.12
2019-03-24T10:13:19.995Z,28.48
2019-03-24T10:17:29.197Z,26.99
2019-03-24T10:21:37.927Z,27.40
2019-03-24T10:25:46.497Z,27.56
2019-03-24T10:29:55.096Z,27.44
2019-03-24T10:34:04.230Z,27.58
2019-03-24T10:38:12.458Z,27.72
2019-03-24T10:42:21.187Z,27.34
2019-03-24T10:46:29.936Z,27.76
2019-03-24T10:50:38.114Z,28.42
2019-03-24T10:54:46.877Z,27.65
2019-03-24T10:58:55.233Z,27.45
2019-03-24T11:03:04.375Z,28.53
2019-03-24T11:07:12.953Z,28.17
2019-03-24T11:11:21.394Z,27.22
2019-03-24T11:15:30.027Z,27.90
2019-03-24T11:19:38.653Z,27.16
2019-03-24T11:23:47.142Z,28.30
2019-03-24T11:27:56.299Z,28.53
2019-03-24T11:32:04.831Z,28.40
2019-03-24T11:36:13.288Z,29.06
2019-03-24T11:40:22.002Z,28.45
2019-03-24T11:44:30.212Z,29.18
2019-03-24T11:48:39.041Z,29.20
2019-03-24T11:52:47.557Z,30.98
2019-03-24T11:56:55.919Z,32.44
2019-03-24T12:01:06.346Z,33.27
2019-03-24T12:05:15.277Z,33.61
2019-03-24T12:09:23.539Z,34.24
2019-03-24T12:13:31.980Z,33.66
2019-03-24T12:17:40.499Z,34.47
2019-03-24T12:21:48.829Z,34.43
2019-03-24T12:25:57.438Z,35.26
2019-03-24T12:30:06.659Z,35.44
2019-03-24T12:34:15.658Z,35.82
2019-03-24T12:38:24.345Z,35.20
2019-03-24T12:42:32.686Z,37.03
2019-03-24T12:46:40.978Z,38.54
2019-03-24T12:50:50.253Z,39.73
2019-03-24T12:54:58.191Z,39.50
2019-03-24T12:59:07.012Z,38.47
2019-03-24T13:03:15.786Z,40.14
2019-03-24T13:07:24.168Z,39.62
2019-03-24T13:11:32.940Z,42.33
2019-03-24T13:15:41.955Z,39.37
2019-03-24T13:19:50.299Z,39.16
2019-03-24T13:23:58.613Z,41.27
2019-03-24T13:28:07.057Z,40.72
2019-03-24T13:32:15.857Z,41.22
2019-03-24T13:36:24.228Z,39.97
2019-03-24T13:40:32.896Z,40.23
2019-03-24T13:44:41.761Z,42.51
2019-03-24T13:48:50.276Z,42.42
2019-03-24T13:52:58.423Z,43.92
2019-03-24T13:57:07.355Z,44.13
2019-03-24T14:01:16.001Z,44.82
2019-03-24T14:05:24.841Z,45.18
2019-03-24T14:09:33.154Z,45.54
2019-03-24T14:13:41.988Z,45.64
2019-03-24T14:17:50.743Z,44.85
2019-03-24T14:21:59.446Z,44.92
2019-03-24T14:26:07.774Z,44.96
2019-03-24T14:30:17.420Z,44.67
2019-03-24T14:34:26.062Z,44.15
2019-03-24T14:38:34.270Z,43.43
2019-03-24T14:42:42.703Z,44.38
2019-03-24T14:46:50.816Z,44.98
2019-03-24T14:50:59.059Z,44.82
2019-03-24T14:55:09.709Z,45.73
2019-03-24T14:59:18.054Z,44.18
2019-03-24T15:03:26.991Z,42.02
2019-03-24T15:07:35.908Z,44.96
2019-03-24T15:11:45.156Z,43.98
2019-03-24T15:15:53.496Z,45.05
2019-03-24T15:20:02.000Z,47.74
2019-03-24T15:24:10.117Z,46.65
2019-03-24T15:28:19.155Z,48.43
2019-03-24T15:32:27.372Z,49.20
2019-03-24T15:36:36.219Z,50.44
2019-03-24T15:40:44.855Z,51.23
2019-03-24T15:44:53.223Z,52.04
2019-03-24T15:49:01.680Z,52.12
2019-03-24T15:53:10.226Z,51.02
2019-03-24T15:57:18.438Z,51.13
2019-03-24T16:01:27.313Z,51.73
2019-03-24T16:05:35.609Z,52.00
2019-03-24T16:09:44.028Z,52.79
2019-03-24T16:13:52.778Z,53.43
2019-03-24T16:18:01.071Z,53.99
2019-03-24T16:22:09.817Z,53.72
2019-03-24T16:26:17.933Z,53.70
2019-03-24T16:30:26.850Z,54.19
2019-03-24T16:34:35.704Z,54.08
2019-03-24T16:38:48.919Z,53.99
2019-03-24T16:42:54.281Z,53.98
2019-03-24T16:47:02.825Z,54.76
2019-03-24T16:51:10.942Z,55.40
2019-03-24T16:55:19.359Z,56.40
2019-03-24T16:59:27.707Z,56.38
2019-03-24T17:03:36.411Z,56.35
2019-03-24T17:07:44.823Z,57.21
2019-03-24T17:11:53.045Z,56.37
2019-03-24T17:16:02.093Z,56.65
2019-03-24T17:20:11.664Z,57.54
2019-03-24T17:24:19.851Z,57.09
2019-03-24T17:28:28.484Z,56.85
2019-03-24T17:32:37.366Z,57.39
2019-03-24T17:36:45.645Z,57.63
2019-03-24T17:40:54.071Z,56.61
2019-03-24T17:45:02.387Z,56.83
2019-03-24T17:49:11.232Z,57.00
2019-03-24T17:53:19.739Z,56.30
2019-03-24T17:57:29.076Z,56.08
2019-03-24T18:01:38.876Z,56.69
2019-03-24T18:05:47.299Z,56.75
2019-03-24T18:09:55.714Z,57.27
2019-03-24T18:14:04.232Z,57.14
2019-03-24T18:18:12.667Z,56.75
2019-03-24T18:22:21.450Z,57.53
2019-03-24T18:26:29.839Z,58.17
2019-03-24T18:30:38.250Z,58.51
2019-03-24T18:34:48.983Z,58.42
2019-03-24T18:38:57.417Z,58.47
2019-03-24T18:43:06.468Z,58.69
2019-03-24T18:47:16.666Z,59.37
2019-03-24T18:51:27.587Z,59.60
2019-03-24T18:55:36.474Z,59.67
2019-03-24T18:59:45.317Z,59.94
2019-03-24T19:03:54.799Z,61.10
2019-03-24T19:08:03.442Z,60.64
2019-03-24T19:12:12.137Z,60.52
2019-03-24T19:16:20.508Z,60.80
2019-03-24T19:20:29.022Z,61.14
2019-03-24T19:24:37.087Z,61.18
2019-03-24T19:28:45.473Z,61.47
2019-03-24T19:32:53.932Z,61.17
2019-03-24T19:37:02.728Z,61.60
2019-03-24T19:41:11.188Z,62.04
2019-03-24T19:45:19.520Z,62.75
2019-03-24T19:49:27.716Z,62.66
2019-03-24T19:53:36.458Z,62.85
2019-03-24T19:57:47.396Z,62.54
2019-03-24T20:01:55.844Z,62.49
2019-03-24T20:06:04.292Z,62.76
2019-03-24T20:10:13.206Z,62.92
2019-03-24T20:14:23.897Z,63.39
2019-03-24T20:18:31.686Z,62.64
2019-03-24T20:22:40.048Z,63.81
2019-03-24T20:26:48.956Z,64.26
2019-03-24T20:30:58.010Z,65.99
2019-03-24T20:35:09.094Z,65.22
2019-03-24T20:39:18.025Z,64.37
2019-03-24T20:43:26.676Z,65.13
2019-03-24T20:47:34.992Z,65.08
2019-03-24T20:51:43.409Z,65.80
2019-03-24T20:55:51.729Z,65.47
2019-03-24T21:00:00.059Z,65.14
2019-03-24T21:04:08.481Z,65.28
2019-03-24T21:08:17.205Z,64.98
2019-03-24T21:12:25.626Z,65.64
2019-03-24T21:16:34.598Z,65.17
2019-03-24T21:20:43.061Z,65.17
2019-03-24T21:24:51.449Z,65.71
2019-03-24T21:29:01.545Z,65.73
2019-03-24T21:33:09.835Z,65.75
2019-03-24T21:37:18.818Z,67.99
2019-03-24T21:41:27.324Z,66.92
2019-03-24T21:45:35.753Z,66.84
2019-03-24T21:49:44.055Z,67.27
2019-03-24T21:53:52.424Z,66.23
2019-03-24T21:58:00.656Z,66.74
2019-03-24T22:02:09.441Z,65.86
2019-03-24T22:06:18.409Z,66.08
2019-03-24T22:10:26.955Z,66.12
2019-03-24T22:14:35.310Z,65.78
2019-03-24T22:18:43.668Z,65.57
2019-03-24T22:22:51.955Z,65.43
2019-03-24T22:27:00.818Z,65.72
2019-03-24T22:31:09.200Z,67.31
2019-03-24T22:35:17.584Z,67.43
2019-03-24T22:39:26.350Z,66.14
2019-03-24T22:43:34.624Z,65.81
2019-03-24T22:47:43.383Z,66.28
2019-03-24T22:51:51.701Z,66.24
2019-03-24T22:56:00.055Z,65.89
2019-03-24T23:00:15.004Z,65.88
2019-03-24T23:04:25.191Z,65.29
2019-03-24T23:08:33.449Z,65.54
2019-03-24T23:12:42.738Z,65.04
2019-03-24T23:16:51.279Z,64.54
2019-03-24T23:21:00.497Z,65.41
2019-03-24T23:25:09.223Z,65.86
2019-03-24T23:29:18.470Z,66.33
2019-03-24T23:33:26.927Z,66.24
2019-03-24T23:37:35.410Z,65.88
2019-03-24T23:41:44.708Z,65.04
2019-03-24T23:45:53.200Z,66.84
2019-03-24T23:50:02.030Z,66.56
2019-03-24T23:54:10.462Z,66.96
2019-03-24T23:58:19.271Z,65.31
